Time;durP1;ratioP1;P1;durP2;ratioP2;P2;SDS_P1;SDS_P2;PMS_P1;PMS_P2;Temp;Humidity;BMP_temperature;BMP_pressure;BME280_temperature;BME280_humidity;BME280_pressure;Samples;Min_cycle;Max_cycle;Signal;HPM_P1;HPM_P2
2022/01/07 00:01:07;;;;;;;15.17;8.73;;;-0.30;99.90;;;;;;5031869;28;21155;-67
2022/01/07 00:03:33;;;;;;;11.57;9.10;;;-0.30;99.90;;;;;;5031915;28;20640;-67
2022/01/07 00:06:00;;;;;;;13.00;10.27;;;-0.30;99.90;;;;;;5031688;28;20181;-67
2022/01/07 00:08:29;;;;;;;13.03;8.10;;;-0.30;99.90;;;;;;5031781;28;20544;-67
2022/01/07 00:10:55;;;;;;;11.93;9.10;;;-0.30;99.90;;;;;;5031886;28;20530;-67
2022/01/07 00:13:21;;;;;;;15.40;9.80;;;-0.30;99.90;;;;;;5031906;28;20539;-67
2022/01/07 00:15:47;;;;;;;11.60;9.40;;;-0.40;99.90;;;;;;5031526;28;20463;-66
2022/01/07 00:18:12;;;;;;;13.80;9.87;;;-0.30;99.90;;;;;;5031736;28;20196;-66
2022/01/07 00:20:39;;;;;;;12.53;8.97;;;-0.30;99.90;;;;;;5031737;28;20261;-66
2022/01/07 00:23:05;;;;;;;14.10;8.17;;;-0.40;99.90;;;;;;5031825;28;20234;-66
2022/01/07 00:25:31;;;;;;;14.27;9.80;;;-0.40;99.90;;;;;;5031525;28;20429;-66
2022/01/07 00:27:57;;;;;;;10.83;8.53;;;-0.40;99.90;;;;;;5031535;28;20487;-67
2022/01/07 00:30:23;;;;;;;17.40;8.70;;;-0.40;99.90;;;;;;5031645;28;20471;-67
2022/01/07 00:32:49;;;;;;;11.40;8.53;;;-0.40;99.90;;;;;;5031626;28;20514;-67
2022/01/07 00:35:17;;;;;;;16.20;9.60;;;-0.40;99.90;;;;;;5031449;28;20421;-66
2022/01/07 00:37:43;;;;;;;10.77;8.03;;;-0.50;99.90;;;;;;5031806;28;20497;-66
2022/01/07 00:40:13;;;;;;;11.40;8.03;;;-0.50;99.90;;;;;;5031664;28;20432;-67
2022/01/07 00:42:39;;;;;;;16.77;8.67;;;-0.50;99.90;;;;;;5031429;28;20441;-66
2022/01/07 00:45:05;;;;;;;11.97;7.13;;;-0.60;99.90;;;;;;5031193;28;20425;-67
2022/01/07 00:47:31;;;;;;;11.93;8.23;;;-0.60;99.90;;;;;;5031415;28;20471;-67
2022/01/07 00:49:58;;;;;;;16.40;8.97;;;-0.60;99.90;;;;;;5031607;28;20417;-67
2022/01/07 00:52:24;;;;;;;12.77;9.30;;;-0.50;99.90;;;;;;5031429;28;20187;-67
2022/01/07 00:54:49;;;;;;;11.33;9.00;;;-0.50;99.90;;;;;;5031446;28;20421;-67
2022/01/07 00:57:15;;;;;;;14.13;8.70;;;-0.50;99.90;;;;;;5031175;28;20421;-66
2022/01/07 00:59:42;;;;;;;11.83;9.17;;;-0.50;99.90;;;;;;5031315;28;20240;-66
2022/01/07 01:02:08;;;;;;;13.50;9.10;;;-0.50;99.90;;;;;;5031395;28;20462;-66
2022/01/07 01:04:34;;;;;;;12.80;9.67;;;-0.50;99.90;;;;;;5031530;28;20953;-67
2022/01/07 01:07:00;;;;;;;13.47;8.37;;;-0.60;99.90;;;;;;5031253;28;20421;-67
2022/01/07 01:09:25;;;;;;;11.17;8.87;;;-0.60;99.90;;;;;;5031357;28;20174;-67
2022/01/07 01:11:51;;;;;;;14.83;9.90;;;-0.60;99.90;;;;;;5033136;28;20734;-67
2022/01/07 01:14:16;;;;;;;13.17;8.87;;;-0.60;99.90;;;;;;5034774;28;20697;-67
2022/01/07 01:16:44;;;;;;;11.27;7.90;;;-0.70;99.90;;;;;;5034796;28;20194;-67
2022/01/07 01:19:10;;;;;;;11.43;7.73;;;-0.70;99.90;;;;;;5034866;28;20178;-66
2022/01/07 01:21:36;;;;;;;12.57;8.83;;;-0.70;99.90;;;;;;5034719;28;20436;-67
2022/01/07 01:24:02;;;;;;;9.23;8.30;;;-0.70;99.90;;;;;;5034641;28;20182;-66
2022/01/07 01:26:28;;;;;;;12.50;8.50;;;-0.70;99.90;;;;;;5034431;28;20505;-67
2022/01/07 01:28:53;;;;;;;11.80;9.17;;;-0.70;99.90;;;;;;5034471;28;20591;-67
2022/01/07 01:31:20;;;;;;;13.40;9.20;;;-0.70;99.90;;;;;;5034694;28;20245;-67
2022/01/07 01:33:46;;;;;;;10.10;8.43;;;-0.70;99.90;;;;;;5034644;28;20710;-66
2022/01/07 01:36:12;;;;;;;15.60;7.80;;;-0.70;99.90;;;;;;5034194;28;20417;-66
2022/01/07 01:38:39;;;;;;;11.93;8.50;;;-0.70;99.90;;;;;;5034441;28;20174;-67
2022/01/07 01:41:06;;;;;;;11.10;7.23;;;-0.70;99.90;;;;;;5034278;28;20447;-67
2022/01/07 01:43:32;;;;;;;12.50;7.80;;;-0.70;99.90;;;;;;5034186;28;20504;-67
2022/01/07 01:45:58;;;;;;;12.00;9.37;;;-0.70;99.90;;;;;;5033999;28;20607;-67
2022/01/07 01:48:23;;;;;;;12.87;9.40;;;-0.70;99.90;;;;;;5034198;28;20461;-67
2022/01/07 01:50:50;;;;;;;12.80;8.63;;;-0.80;99.90;;;;;;5034144;28;20190;-66
2022/01/07 01:53:16;;;;;;;10.23;7.53;;;-0.80;99.90;;;;;;5034186;28;20171;-67
2022/01/07 01:55:42;;;;;;;18.87;10.40;;;-0.80;99.90;;;;;;5033776;28;20417;-66
2022/01/07 01:58:08;;;;;;;13.50;8.80;;;-0.80;99.90;;;;;;5033995;28;20792;-67
2022/01/07 02:00:34;;;;;;;10.60;8.83;;;-0.90;99.90;;;;;;5032674;28;20482;-67
2022/01/07 02:03:00;;;;;;;16.80;9.90;;;-0.80;99.90;;;;;;5034009;28;20208;-66
2022/01/07 02:05:26;;;;;;;13.27;9.40;;;-0.90;99.90;;;;;;5033700;28;20416;-66
2022/01/07 02:07:53;;;;;;;20.63;9.53;;;-0.90;99.90;;;;;;5033903;28;20198;-67
2022/01/07 02:10:19;;;;;;;13.00;9.70;;;-0.90;99.90;;;;;;5033790;28;20431;-67
2022/01/07 02:12:45;;;;;;;16.53;9.47;;;-0.90;99.90;;;;;;5033705;28;20433;-67
2022/01/07 02:15:12;;;;;;;16.10;9.47;;;-0.90;99.90;;;;;;5033522;28;20424;-67
2022/01/07 02:17:41;;;;;;;14.20;10.17;;;-0.90;99.90;;;;;;5033821;28;20174;-67
2022/01/07 02:20:08;;;;;;;15.50;8.93;;;-0.90;99.90;;;;;;5033585;28;20444;-67
2022/01/07 02:22:33;;;;;;;16.27;9.80;;;-0.80;99.90;;;;;;5033380;28;20447;-67
2022/01/07 02:24:59;;;;;;;16.40;8.93;;;-0.80;99.90;;;;;;5033274;28;20853;-67
2022/01/07 02:27:24;;;;;;;12.83;8.60;;;-0.80;99.90;;;;;;5033348;28;20684;-67
2022/01/07 02:29:51;;;;;;;15.43;9.77;;;-0.80;99.90;;;;;;5033600;28;20200;-66
2022/01/07 02:32:18;;;;;;;14.03;9.57;;;-0.80;99.90;;;;;;5033326;28;20197;-67
2022/01/07 02:34:48;;;;;;;13.67;9.53;;;-0.80;99.90;;;;;;5033450;28;20503;-67
2022/01/07 02:37:14;;;;;;;11.97;9.07;;;-0.80;99.90;;;;;;5033005;28;20413;-67
2022/01/07 02:39:40;;;;;;;13.87;10.47;;;-0.80;99.90;;;;;;5033133;28;20417;-67
2022/01/07 02:42:06;;;;;;;12.93;9.10;;;-0.90;99.90;;;;;;5033081;28;20480;-67
2022/01/07 02:44:32;;;;;;;12.40;9.53;;;-0.90;99.90;;;;;;5033179;28;20749;-67
2022/01/07 02:46:59;;;;;;;14.17;11.07;;;-0.90;99.90;;;;;;5032652;28;20447;-67
2022/01/07 02:49:24;;;;;;;10.73;9.20;;;-0.90;99.90;;;;;;5033181;28;20312;-66
2022/01/07 02:51:50;;;;;;;16.23;10.60;;;-1.00;99.90;;;;;;5033048;28;20460;-67
2022/01/07 02:54:15;;;;;;;14.40;8.90;;;-1.00;99.90;;;;;;5032938;28;20177;-67
2022/01/07 02:56:42;;;;;;;13.00;9.90;;;-1.00;99.90;;;;;;5032710;28;20261;-67
2022/01/07 02:59:08;;;;;;;13.37;9.53;;;-1.00;99.90;;;;;;5032843;28;20196;-67
2022/01/07 03:01:35;;;;;;;18.23;10.90;;;-1.00;99.90;;;;;;5032838;28;20437;-67
2022/01/07 03:04:00;;;;;;;12.70;8.77;;;-1.00;99.90;;;;;;5032686;28;20431;-67
2022/01/07 03:06:26;;;;;;;18.73;11.40;;;-1.00;99.90;;;;;;5032531;28;20508;-67
2022/01/07 03:08:52;;;;;;;17.33;10.97;;;-1.00;99.90;;;;;;5032708;28;20248;-67
2022/01/07 03:11:19;;;;;;;17.20;10.57;;;-1.00;99.90;;;;;;5032825;28;20830;-67
2022/01/07 03:13:45;;;;;;;11.70;9.90;;;-1.00;99.90;;;;;;5032643;28;20261;-67
2022/01/07 03:16:11;;;;;;;17.77;9.83;;;-1.00;99.90;;;;;;5032316;28;20482;-67
2022/01/07 03:18:37;;;;;;;12.90;9.23;;;-1.00;99.90;;;;;;5032674;28;20825;-67
2022/01/07 03:21:03;;;;;;;14.93;9.30;;;-1.00;99.90;;;;;;5032472;28;20495;-67
2022/01/07 03:23:29;;;;;;;14.07;8.33;;;-1.00;99.90;;;;;;5032559;28;20174;-67
2022/01/07 03:25:55;;;;;;;12.93;7.73;;;-1.00;99.90;;;;;;5032333;28;20478;-67
2022/01/07 03:28:20;;;;;;;11.10;6.60;;;-1.00;99.90;;;;;;5032262;28;20487;-67
2022/01/07 03:30:47;;;;;;;10.67;7.03;;;-1.00;99.90;;;;;;5032308;28;20178;-67
2022/01/07 03:33:13;;;;;;;11.47;6.40;;;-1.00;99.90;;;;;;5032038;28;20216;-67
2022/01/07 03:35:39;;;;;;;9.20;6.47;;;-1.00;99.90;;;;;;5031737;28;20479;-67
2022/01/07 03:38:06;;;;;;;15.30;8.00;;;-1.00;99.90;;;;;;5032179;28;20416;-67
2022/01/07 03:40:32;;;;;;;16.00;7.20;;;-1.00;99.90;;;;;;5032146;28;20504;-67
2022/01/07 03:42:58;;;;;;;8.30;6.33;;;-0.90;99.90;;;;;;5032202;28;20420;-67
2022/01/07 03:45:24;;;;;;;16.10;8.17;;;-0.90;99.90;;;;;;5031944;28;20919;-67
2022/01/07 03:47:53;;;;;;;10.70;6.20;;;-0.90;99.90;;;;;;5031979;28;20260;-67
2022/01/07 03:50:23;;;;;;;9.57;6.83;;;-0.90;99.90;;;;;;5032163;28;20224;-67
2022/01/07 03:52:49;;;;;;;12.07;7.10;;;-0.80;99.90;;;;;;5031939;28;20571;-67
2022/01/07 03:55:17;;;;;;;8.80;6.60;;;-0.90;99.90;;;;;;5031873;28;20417;-67
2022/01/07 03:57:43;;;;;;;9.40;6.20;;;-0.90;99.90;;;;;;5032010;28;20456;-67
2022/01/07 04:00:15;;;;;;;9.83;6.87;;;-0.90;99.90;;;;;;5032468;28;20427;-67
2022/01/07 04:02:41;;;;;;;11.27;6.70;;;-1.00;99.90;;;;;;5032132;28;20680;-67
2022/01/07 04:05:08;;;;;;;8.50;6.70;;;-1.00;99.90;;;;;;5031582;28;20417;-67
2022/01/07 04:07:33;;;;;;;10.00;6.60;;;-1.00;99.90;;;;;;5031775;28;20463;-67
2022/01/07 04:09:59;;;;;;;9.53;6.37;;;-1.00;99.90;;;;;;5032013;28;20934;-67
2022/01/07 04:12:28;;;;;;;11.27;6.37;;;-1.00;99.90;;;;;;5031893;28;20232;-67
2022/01/07 04:15:07;;;;;;;12.20;7.30;;;-1.00;99.90;;;;;;5031860;28;20483;-67
2022/01/07 04:17:34;;;;;;;8.90;6.93;;;-1.10;99.90;;;;;;5031791;28;20427;-67
2022/01/07 04:20:00;;;;;;;9.87;7.00;;;-1.10;99.90;;;;;;5031845;28;20424;-67
2022/01/07 04:22:25;;;;;;;10.07;6.83;;;-1.10;99.90;;;;;;5031817;28;20437;-67
2022/01/07 04:24:51;;;;;;;10.90;6.80;;;-1.10;99.90;;;;;;5031705;28;20671;-67
2022/01/07 04:27:16;;;;;;;7.63;5.90;;;-1.10;99.90;;;;;;5031378;28;20182;-67
2022/01/07 04:29:42;;;;;;;11.03;7.87;;;-1.10;99.90;;;;;;5031776;28;20179;-67
2022/01/07 04:32:09;;;;;;;14.93;7.33;;;-1.10;99.90;;;;;;5031569;28;20194;-67
2022/01/07 04:34:34;;;;;;;11.57;8.97;;;-1.10;99.90;;;;;;5031695;28;20174;-67
2022/01/07 04:37:00;;;;;;;10.10;7.40;;;-1.10;99.90;;;;;;5031379;28;20411;-67
2022/01/07 04:39:25;;;;;;;10.77;6.87;;;-1.10;99.90;;;;;;5031673;28;20171;-67
2022/01/07 04:41:51;;;;;;;9.90;7.30;;;-1.10;99.90;;;;;;5031541;28;20548;-67
2022/01/07 04:44:19;;;;;;;14.40;7.83;;;-1.10;99.90;;;;;;5031620;28;20170;-67
2022/01/07 04:46:44;;;;;;;12.20;7.20;;;-1.20;99.90;;;;;;5031795;28;20212;-67
2022/01/07 04:49:10;;;;;;;17.60;8.77;;;-1.20;99.90;;;;;;5035276;28;20495;-67
2022/01/07 04:51:35;;;;;;;9.97;7.87;;;-1.20;99.90;;;;;;5035321;28;20197;-67
2022/01/07 04:54:01;;;;;;;11.53;8.50;;;-1.20;99.90;;;;;;5035231;28;20177;-67
2022/01/07 04:56:26;;;;;;;11.20;7.70;;;-1.20;99.90;;;;;;5034991;28;20557;-67
2022/01/07 04:58:52;;;;;;;11.70;7.83;;;-1.20;99.90;;;;;;5035100;28;20174;-67
2022/01/07 05:01:17;;;;;;;12.80;9.00;;;-1.20;99.90;;;;;;5035033;28;20216;-67
2022/01/07 05:03:43;;;;;;;13.17;6.60;;;-1.20;99.90;;;;;;5035248;28;20173;-68
2022/01/07 05:08:52;;;;;;;13.43;7.67;;;-1.20;99.90;;;;;;5034943;28;20209;-67
2022/01/07 05:11:18;;;;;;;11.13;8.30;;;-1.20;99.90;;;;;;5034922;28;20429;-67
2022/01/07 05:13:43;;;;;;;15.30;7.67;;;-1.20;99.90;;;;;;5034838;28;20170;-67
2022/01/07 05:16:09;;;;;;;14.67;9.23;;;-1.20;99.90;;;;;;5034566;28;20174;-67
2022/01/07 05:18:34;;;;;;;9.50;6.43;;;-1.20;99.90;;;;;;5034860;28;20176;-67
2022/01/07 05:21:00;;;;;;;11.53;7.70;;;-1.20;99.90;;;;;;5034642;28;20214;-67
2022/01/07 05:23:25;;;;;;;11.73;7.33;;;-1.20;99.90;;;;;;5034734;28;20170;-67
2022/01/07 05:25:51;;;;;;;11.70;7.80;;;-1.20;99.90;;;;;;5034400;28;20229;-67
2022/01/07 05:28:16;;;;;;;18.40;7.90;;;-1.20;99.90;;;;;;5034545;28;20202;-67
2022/01/07 05:30:42;;;;;;;11.30;8.77;;;-1.20;99.90;;;;;;5034483;28;20575;-67
2022/01/07 05:33:07;;;;;;;13.40;7.37;;;-1.20;99.90;;;;;;5034581;28;20196;-67
2022/01/07 05:35:33;;;;;;;12.67;8.90;;;-1.20;99.90;;;;;;5033857;28;20170;-67
2022/01/07 05:37:58;;;;;;;11.90;8.57;;;-1.10;99.90;;;;;;5034470;28;20170;-67
2022/01/07 05:40:24;;;;;;;13.60;8.40;;;-1.10;99.90;;;;;;5034476;28;20543;-67
2022/01/07 05:42:50;;;;;;;15.90;8.90;;;-1.10;99.90;;;;;;5034232;28;20194;-67
2022/01/07 05:45:15;;;;;;;15.67;9.90;;;-1.10;99.90;;;;;;5034016;28;20174;-67
2022/01/07 05:47:41;;;;;;;13.13;9.00;;;-1.10;99.90;;;;;;5034132;28;20210;-67
2022/01/07 05:50:07;;;;;;;13.80;9.10;;;-1.10;99.90;;;;;;5034094;28;20175;-67
2022/01/07 05:52:33;;;;;;;12.23;9.30;;;-1.00;99.90;;;;;;5034046;28;20201;-67
2022/01/07 05:54:58;;;;;;;14.20;8.60;;;-1.00;99.90;;;;;;5034073;28;20425;-68
2022/01/07 05:57:24;;;;;;;12.13;8.20;;;-1.00;99.90;;;;;;5033554;28;20174;-67
2022/01/07 05:59:49;;;;;;;10.23;8.30;;;-1.00;99.90;;;;;;5034029;28;20167;-67
2022/01/07 06:02:15;;;;;;;13.30;8.93;;;-0.90;99.90;;;;;;5033930;28;20194;-67
2022/01/07 06:04:40;;;;;;;13.67;8.57;;;-0.90;99.90;;;;;;5032567;28;20174;-67
2022/01/07 06:07:06;;;;;;;15.93;10.27;;;-0.90;99.90;;;;;;5033619;28;20208;-67
2022/01/07 06:09:32;;;;;;;12.47;8.10;;;-0.90;99.90;;;;;;5033855;28;20517;-67
2022/01/07 06:11:57;;;;;;;17.23;10.10;;;-0.90;99.90;;;;;;5033714;28;20221;-67
2022/01/07 06:14:23;;;;;;;14.70;10.23;;;-0.90;99.90;;;;;;5033795;28;20296;-67
2022/01/07 06:16:49;;;;;;;16.80;10.70;;;-0.80;99.90;;;;;;5033422;28;20166;-67
2022/01/07 06:19:14;;;;;;;13.53;9.33;;;-0.80;99.90;;;;;;5033581;28;20897;-67
2022/01/07 06:21:40;;;;;;;14.33;9.80;;;-0.80;99.90;;;;;;5033735;28;20190;-67
2022/01/07 06:24:06;;;;;;;16.17;11.17;;;-0.80;99.90;;;;;;5033571;28;20170;-67
2022/01/07 06:26:31;;;;;;;14.20;9.50;;;-0.80;99.90;;;;;;5033309;28;20170;-67
2022/01/07 06:28:57;;;;;;;15.13;10.60;;;-0.80;99.90;;;;;;5033378;28;20491;-67
2022/01/07 06:31:24;;;;;;;14.73;9.03;;;-0.80;99.90;;;;;;5033462;28;20275;-67
2022/01/07 06:33:49;;;;;;;14.87;10.33;;;-0.70;99.90;;;;;;5033070;28;20428;-67
2022/01/07 06:36:15;;;;;;;18.20;11.30;;;-0.70;99.90;;;;;;5033037;28;20409;-67
2022/01/07 06:38:40;;;;;;;15.67;9.50;;;-0.70;99.90;;;;;;5033311;28;20219;-67
2022/01/07 06:41:06;;;;;;;16.60;10.13;;;-0.70;99.90;;;;;;5033291;28;20194;-67
2022/01/07 06:43:32;;;;;;;14.20;9.23;;;-0.70;99.90;;;;;;5033202;28;20236;-68
2022/01/07 06:45:58;;;;;;;13.50;9.70;;;-0.70;99.90;;;;;;5032741;28;21016;-67
2022/01/07 06:48:23;;;;;;;13.63;9.40;;;-0.70;99.90;;;;;;5033126;28;20656;-67
2022/01/07 06:50:49;;;;;;;17.10;11.33;;;-0.70;99.90;;;;;;5033147;28;20221;-67
2022/01/07 06:53:14;;;;;;;19.27;9.87;;;-0.70;99.90;;;;;;5033098;28;20174;-67
2022/01/07 06:55:40;;;;;;;12.43;8.90;;;-0.80;99.90;;;;;;5032802;28;20166;-67
2022/01/07 06:58:05;;;;;;;19.40;10.73;;;-0.70;99.90;;;;;;5032906;28;20178;-67
2022/01/07 07:00:31;;;;;;;13.70;9.80;;;-0.70;99.90;;;;;;5032830;28;20671;-67
2022/01/07 07:02:57;;;;;;;12.60;9.60;;;-0.70;99.90;;;;;;5032848;28;20666;-67
2022/01/07 07:05:24;;;;;;;16.73;9.80;;;-0.70;99.90;;;;;;5032534;28;20179;-67
2022/01/07 07:07:50;;;;;;;17.23;9.50;;;-0.70;99.90;;;;;;5032601;28;20237;-67
2022/01/07 07:10:15;;;;;;;15.50;10.20;;;-0.70;99.90;;;;;;5032181;28;20417;-67
2022/01/07 07:12:41;;;;;;;13.47;9.13;;;-0.70;99.90;;;;;;5032589;28;20444;-67
2022/01/07 07:15:07;;;;;;;15.10;9.57;;;-0.70;99.90;;;;;;5032385;28;20236;-67
2022/01/07 07:17:32;;;;;;;17.03;10.47;;;-0.70;99.90;;;;;;5032701;28;20206;-67
2022/01/07 07:20:00;;;;;;;13.57;8.57;;;-0.70;99.90;;;;;;5032538;28;20538;-67
2022/01/07 07:22:26;;;;;;;17.80;9.33;;;-0.60;99.90;;;;;;5032558;28;20186;-68
2022/01/07 07:24:52;;;;;;;16.93;9.73;;;-0.60;99.90;;;;;;5032445;28;20421;-67
2022/01/07 07:27:17;;;;;;;16.83;9.20;;;-0.60;99.90;;;;;;5032063;28;20454;-67
2022/01/07 07:29:43;;;;;;;13.90;9.43;;;-0.60;99.90;;;;;;5032349;28;20636;-67
2022/01/07 07:32:10;;;;;;;17.80;9.57;;;-0.50;99.90;;;;;;5032360;28;20742;-67
2022/01/07 07:37:04;;;;;;;18.37;9.87;;;-0.50;99.90;;;;;;5032000;28;20413;-67
2022/01/07 07:39:30;;;;;;;20.97;11.30;;;-0.50;99.90;;;;;;5032237;28;20425;-67
2022/01/07 07:41:56;;;;;;;14.93;10.83;;;-0.50;99.90;;;;;;5032035;28;20217;-67
2022/01/07 07:44:21;;;;;;;18.37;10.67;;;-0.50;99.90;;;;;;5032357;28;20425;-67
2022/01/07 07:46:47;;;;;;;14.83;9.17;;;-0.40;99.90;;;;;;5031714;28;20194;-67
2022/01/07 07:49:14;;;;;;;19.17;11.57;;;-0.40;99.90;;;;;;5031962;28;20251;-67
2022/01/07 07:51:39;;;;;;;19.67;9.97;;;-0.40;99.90;;;;;;5031961;28;20186;-67
2022/01/07 07:54:06;;;;;;;13.63;9.40;;;-0.30;99.90;;;;;;5032019;28;20427;-68
2022/01/07 07:56:32;;;;;;;12.63;9.00;;;-0.30;99.90;;;;;;5031710;28;20170;-68
2022/01/07 07:58:58;;;;;;;14.47;9.87;;;-0.20;99.90;;;;;;5031823;28;20419;-67
2022/01/07 08:01:25;;;;;;;16.57;8.83;;;0.10;99.90;;;;;;5031870;28;20861;-67
2022/01/07 08:03:50;;;;;;;28.43;21.40;;;0.40;99.90;;;;;;5032011;28;20417;-68
2022/01/07 08:06:16;;;;;;;15.10;10.10;;;0.90;99.90;;;;;;5031584;28;20528;-67
2022/01/07 08:08:42;;;;;;;14.50;11.03;;;1.10;99.90;;;;;;5031830;28;20668;-68
2022/01/07 08:11:10;;;;;;;17.30;9.43;;;0.90;99.90;;;;;;5031740;28;20194;-67
2022/01/07 08:16:23;;;;;;;15.40;10.60;;;0.40;99.90;;;;;;5031636;28;21105;-67
2022/01/07 08:18:51;;;;;;;16.23;10.23;;;0.30;99.90;;;;;;5031858;28;20500;-67
2022/01/07 08:21:17;;;;;;;19.63;15.00;;;0.20;99.90;;;;;;5034696;28;20486;-67
2022/01/07 08:23:44;;;;;;;16.53;10.77;;;0.20;99.90;;;;;;5035822;28;20416;-67
2022/01/07 08:26:12;;;;;;;12.00;9.20;;;0.20;99.90;;;;;;5035555;28;20440;-67
2022/01/07 08:28:43;;;;;;;18.50;12.00;;;0.20;99.90;;;;;;5035600;28;20965;-68
2022/01/07 08:36:22;;;;;;;12.07;8.97;;;0.30;99.90;;;;;;5035398;28;20559;-67
2022/01/07 08:38:49;;;;;;;12.70;9.57;;;0.30;99.90;;;;;;5035493;28;20417;-68
2022/01/07 08:41:16;;;;;;;13.47;8.40;;;0.30;99.90;;;;;;5035473;28;20942;-67
2022/01/07 08:43:41;;;;;;;13.60;9.13;;;0.40;99.90;;;;;;5035443;28;20431;-67
2022/01/07 08:46:08;;;;;;;11.80;8.03;;;0.40;99.90;;;;;;5034904;28;20902;-67
2022/01/07 08:48:35;;;;;;;18.80;12.20;;;0.40;99.90;;;;;;5035327;28;20210;-68
2022/01/07 08:51:01;;;;;;;11.13;8.43;;;0.40;99.90;;;;;;5035295;28;20841;-67
2022/01/07 08:53:27;;;;;;;12.27;8.20;;;0.50;99.90;;;;;;5035293;28;20427;-67
2022/01/07 08:55:53;;;;;;;13.27;8.57;;;0.50;99.90;;;;;;5034945;28;20408;-67
2022/01/07 08:58:18;;;;;;;10.77;8.07;;;0.50;99.90;;;;;;5035161;28;20265;-67
2022/01/07 09:00:44;;;;;;;12.30;8.77;;;0.50;99.90;;;;;;5035025;28;20888;-67
2022/01/07 09:03:10;;;;;;;14.07;9.27;;;0.50;99.90;;;;;;5035056;28;20206;-67
2022/01/07 09:05:35;;;;;;;12.07;9.00;;;0.50;99.90;;;;;;5034768;28;20377;-67
2022/01/07 09:08:01;;;;;;;14.97;10.70;;;0.60;99.90;;;;;;5034920;28;20247;-67
2022/01/07 09:10:26;;;;;;;10.83;7.83;;;0.60;99.90;;;;;;5034975;28;20174;-67
2022/01/07 09:12:52;;;;;;;15.30;8.87;;;0.60;99.90;;;;;;5034699;28;20697;-68
2022/01/07 09:15:18;;;;;;;12.70;9.43;;;0.70;99.90;;;;;;5034541;28;20529;-68
2022/01/07 09:17:44;;;;;;;13.00;8.60;;;0.70;99.90;;;;;;5034942;28;20459;-67
2022/01/07 09:20:11;;;;;;;12.90;9.90;;;0.80;99.90;;;;;;5035074;28;20472;-67
2022/01/07 09:22:37;;;;;;;13.50;10.27;;;0.90;99.90;;;;;;5034640;28;20201;-68
2022/01/07 09:25:04;;;;;;;18.17;12.17;;;0.90;99.90;;;;;;5034455;28;20421;-67
2022/01/07 09:27:31;;;;;;;16.00;10.00;;;0.90;99.90;;;;;;5034509;28;20565;-68
2022/01/07 09:29:56;;;;;;;13.60;9.63;;;1.00;99.90;;;;;;5034537;28;20797;-67
2022/01/07 09:32:22;;;;;;;11.73;8.63;;;1.00;99.90;;;;;;5033718;28;20429;-68
2022/01/07 09:34:47;;;;;;;14.50;11.23;;;1.00;99.90;;;;;;5034489;28;20202;-67
2022/01/07 09:37:13;;;;;;;11.03;8.00;;;1.00;99.90;;;;;;5034228;28;20197;-67
2022/01/07 09:39:38;;;;;;;13.40;8.47;;;1.00;99.90;;;;;;5034464;28;20655;-67
2022/01/07 09:42:05;;;;;;;16.20;10.40;;;1.00;99.90;;;;;;5034312;28;20283;-67
2022/01/07 09:44:30;;;;;;;16.70;11.00;;;1.00;99.90;;;;;;5034366;28;20259;-67
2022/01/07 09:46:56;;;;;;;13.10;9.03;;;1.00;99.90;;;;;;5033810;28;20528;-67
2022/01/07 09:49:22;;;;;;;12.00;8.67;;;1.00;99.90;;;;;;5034212;28;20198;-67
2022/01/07 09:51:47;;;;;;;21.00;16.37;;;1.00;99.90;;;;;;5034130;28;20217;-67
2022/01/07 09:54:13;;;;;;;17.73;11.70;;;1.00;99.90;;;;;;5034180;28;20571;-68
2022/01/07 09:56:40;;;;;;;10.17;7.60;;;1.10;99.90;;;;;;5033698;28;20171;-67
2022/01/07 09:59:07;;;;;;;12.20;7.80;;;1.10;99.90;;;;;;5034028;28;20217;-67
2022/01/07 10:01:54;;;;;;;10.80;8.10;;;1.10;99.90;;;;;;5034392;28;20449;-67
2022/01/07 10:04:37;;;;;;;12.77;7.93;;;1.20;99.90;;;;;;5033996;28;20463;-67
2022/01/07 10:07:23;;;;;;;12.50;8.30;;;1.20;99.90;;;;;;5033598;28;20778;-67
2022/01/07 10:10:00;;;;;;;13.17;7.57;;;1.20;99.90;;;;;;5033906;28;20511;-67
2022/01/07 10:12:28;;;;;;;12.60;7.97;;;1.30;99.90;;;;;;5033739;28;20432;-68
2022/01/07 10:15:15;;;;;;;18.73;9.80;;;1.30;99.90;;;;;;5033719;28;20881;-67
2022/01/07 10:17:52;;;;;;;11.80;9.00;;;1.30;99.90;;;;;;5033716;28;20413;-67
2022/01/07 10:20:23;;;;;;;9.83;7.17;;;1.20;99.90;;;;;;5033634;28;20409;-68
2022/01/07 10:22:54;;;;;;;12.77;8.50;;;1.20;99.90;;;;;;5033657;28;20950;-67
2022/01/07 10:25:22;;;;;;;11.37;7.53;;;1.10;99.90;;;;;;5033380;28;20417;-67
2022/01/07 10:27:48;;;;;;;10.93;8.40;;;1.10;99.90;;;;;;5033398;28;20464;-67
2022/01/07 10:30:16;;;;;;;10.67;8.00;;;1.20;99.90;;;;;;5033375;28;20405;-67
2022/01/07 10:32:42;;;;;;;11.87;8.47;;;1.20;99.90;;;;;;5033378;28;20727;-67
2022/01/07 10:35:19;;;;;;;16.53;10.10;;;1.10;99.90;;;;;;5033117;28;20455;-68
2022/01/07 10:37:46;;;;;;;13.67;8.43;;;1.20;99.90;;;;;;5033297;28;20425;-67
2022/01/07 10:40:25;;;;;;;11.70;8.23;;;1.20;99.90;;;;;;5033320;28;20428;-67
2022/01/07 10:43:14;;;;;;;13.87;7.73;;;1.10;99.90;;;;;;5033409;28;20445;-68
2022/01/07 10:45:43;;;;;;;14.20;9.03;;;1.10;99.90;;;;;;5032765;28;20417;-67
2022/01/07 10:48:09;;;;;;;13.13;9.23;;;1.10;99.90;;;;;;5033095;28;20823;-67
2022/01/07 10:50:46;;;;;;;15.83;8.87;;;1.10;99.90;;;;;;5033007;28;20413;-67
2022/01/07 10:53:28;;;;;;;15.97;8.63;;;1.10;99.90;;;;;;5033012;28;20694;-67
2022/01/07 10:56:14;;;;;;;12.00;8.23;;;1.10;99.90;;;;;;5032687;28;20405;-67
2022/01/07 10:58:45;;;;;;;13.97;9.60;;;1.00;99.90;;;;;;5031590;28;20819;-67
2022/01/07 11:01:26;;;;;;;16.07;10.67;;;1.10;99.90;;;;;;5032654;28;20469;-67
2022/01/07 11:03:54;;;;;;;14.33;9.30;;;1.10;99.90;;;;;;5032911;28;20425;-67
2022/01/07 11:06:21;;;;;;;14.33;10.10;;;1.10;99.90;;;;;;5032471;28;20421;-67
2022/01/07 11:08:50;;;;;;;16.40;9.37;;;1.10;99.90;;;;;;5032518;28;20464;-67
2022/01/07 11:11:16;;;;;;;13.03;9.53;;;1.10;99.90;;;;;;5032652;28;20443;-67
2022/01/07 11:13:42;;;;;;;13.07;9.83;;;1.10;99.90;;;;;;5032660;28;20760;-67
2022/01/07 11:16:08;;;;;;;15.00;8.97;;;1.10;99.90;;;;;;5032271;28;20508;-67
2022/01/07 11:18:37;;;;;;;13.30;8.70;;;1.10;99.90;;;;;;5032636;28;20718;-67
2022/01/07 11:21:03;;;;;;;12.43;9.07;;;1.20;99.90;;;;;;5032414;28;20433;-68
2022/01/07 11:23:30;;;;;;;13.67;9.70;;;1.10;99.90;;;;;;5032444;28;20424;-67
2022/01/07 11:26:07;;;;;;;11.63;7.70;;;1.10;99.90;;;;;;5032158;28;20423;-67
2022/01/07 11:28:33;;;;;;;16.30;10.00;;;1.20;99.90;;;;;;5032247;28;20464;-67
2022/01/07 11:31:04;;;;;;;13.47;10.00;;;1.20;99.90;;;;;;5032274;28;20957;-67
2022/01/07 11:33:30;;;;;;;12.80;9.63;;;1.20;99.90;;;;;;5032338;28;20432;-67
2022/01/07 11:35:56;;;;;;;13.73;8.97;;;1.20;99.90;;;;;;5032028;28;20432;-67
2022/01/07 11:38:43;;;;;;;14.63;8.80;;;1.30;99.90;;;;;;5031015;28;20427;-67
2022/01/07 11:41:12;;;;;;;11.13;8.03;;;1.40;99.90;;;;;;5030922;28;20453;-67
2022/01/07 11:43:44;;;;;;;14.87;9.47;;;1.60;99.90;;;;;;5032229;28;20508;-67
2022/01/07 11:46:25;;;;;;;12.83;9.50;;;1.80;99.90;;;;;;5031809;28;20439;-67
2022/01/07 11:48:51;;;;;;;11.23;8.37;;;1.90;99.90;;;;;;5032020;28;20496;-67
2022/01/07 11:51:17;;;;;;;12.20;8.67;;;1.90;99.90;;;;;;5031896;28;20447;-67
2022/01/07 11:53:48;;;;;;;13.60;8.60;;;2.00;99.90;;;;;;5032086;28;20521;-67
2022/01/07 11:56:22;;;;;;;18.13;8.23;;;2.30;99.90;;;;;;5031366;28;20417;-66
2022/01/07 11:58:56;;;;;;;9.80;7.57;;;2.30;99.90;;;;;;5032028;28;20425;-66
2022/01/07 12:01:30;;;;;;;9.13;6.87;;;2.20;99.90;;;;;;5031939;28;20823;-66
2022/01/07 12:03:59;;;;;;;12.50;7.97;;;2.10;99.90;;;;;;5031932;28;20475;-66
2022/01/07 12:06:28;;;;;;;11.70;8.03;;;2.10;99.90;;;;;;5031693;28;20428;-66
2022/01/07 12:09:02;;;;;;;10.23;8.77;;;2.00;99.90;;;;;;5031883;28;20502;-66
2022/01/07 12:11:29;;;;;;;9.00;7.50;;;2.00;99.90;;;;;;5030505;28;20534;-66
2022/01/07 12:13:55;;;;;;;9.10;6.33;;;2.00;99.90;;;;;;5031884;28;20405;-66
2022/01/07 12:16:26;;;;;;;8.13;6.53;;;1.90;99.90;;;;;;5031528;28;20492;-66
2022/01/07 12:18:52;;;;;;;9.23;7.47;;;1.90;99.90;;;;;;5031852;28;20911;-67
2022/01/07 12:21:17;;;;;;;10.43;6.93;;;1.90;99.90;;;;;;5031752;28;20452;-67
2022/01/07 12:23:43;;;;;;;8.27;6.03;;;1.90;99.90;;;;;;5031797;28;20245;-67
2022/01/07 12:26:10;;;;;;;10.23;7.57;;;1.90;99.90;;;;;;5031434;28;20285;-67
2022/01/07 12:28:48;;;;;;;16.27;8.50;;;2.00;99.90;;;;;;5030399;28;20452;-67
2022/01/07 12:31:13;;;;;;;10.50;7.77;;;2.00;99.90;;;;;;5031649;28;20442;-67
2022/01/07 12:33:52;;;;;;;9.63;6.50;;;2.00;99.90;;;;;;5031099;28;20420;-66
2022/01/07 12:36:54;;;;;;;10.27;6.70;;;2.10;99.90;;;;;;5031344;28;20167;-67
2022/01/07 12:39:26;;;;;;;8.33;6.60;;;2.10;99.90;;;;;;5031524;28;20420;-67
2022/01/07 12:41:53;;;;;;;9.73;6.60;;;2.10;99.90;;;;;;5030160;28;20590;-67
2022/01/07 12:44:18;;;;;;;8.43;6.37;;;2.20;99.90;;;;;;5031606;28;20413;-67
2022/01/07 12:46:56;;;;;;;8.33;7.47;;;2.30;99.90;;;;;;5031227;28;20949;-67
2022/01/07 12:49:40;;;;;;;7.23;6.43;;;2.40;99.90;;;;;;5031526;28;20197;-67
2022/01/07 12:52:09;;;;;;;11.63;7.07;;;2.50;99.90;;;;;;5031210;28;20444;-67
2022/01/07 12:54:35;;;;;;;11.23;6.90;;;2.80;99.90;;;;;;5031601;28;20421;-67